Time;durP1;ratioP1;P1;durP2;ratioP2;P2;SDS_P1;SDS_P2;PMS_P1;PMS_P2;Temp;Humidity;BMP_temperature;BMP_pressure;BME280_temperature;BME280_humidity;BME280_pressure;Samples;Min_cycle;Max_cycle;Signal;HPM_P1;HPM_P2
2023/03/01 00:01:59;;;;;;;6.67;4.80;;;-4.20;99.90;;;;;;5064131;28;20189;-78
2023/03/01 00:04:25;;;;;;;6.20;4.83;;;-4.20;99.90;;;;;;5064325;28;20277;-80
2023/03/01 00:06:50;;;;;;;5.33;4.43;;;-4.20;99.90;;;;;;5067560;28;20247;-78
2023/03/01 00:09:17;;;;;;;7.53;4.87;;;-4.20;99.90;;;;;;5066375;28;20654;-78
2023/03/01 00:11:44;;;;;;;7.73;4.50;;;-4.30;99.90;;;;;;5067788;28;20181;-79
2023/03/01 00:14:09;;;;;;;6.27;4.97;;;-4.30;99.90;;;;;;5066736;28;20209;-78
2023/03/01 00:16:39;;;;;;;6.60;4.60;;;-1.80;99.90;;;;;;5067550;28;20212;-78
2023/03/01 00:19:06;;;;;;;7.07;4.57;;;-4.30;99.90;;;;;;5066322;28;20272;-79
2023/03/01 00:21:32;;;;;;;6.70;5.00;;;-4.30;99.90;;;;;;5066402;28;20192;-80
2023/03/01 00:23:58;;;;;;;7.10;4.83;;;-4.40;99.90;;;;;;5067283;28;20185;-78
2023/03/01 00:26:25;;;;;;;5.70;4.43;;;-4.40;99.90;;;;;;5066216;28;20664;-77
2023/03/01 00:28:52;;;;;;;5.57;4.47;;;-4.40;99.90;;;;;;5067828;28;20580;-79
2023/03/01 00:31:21;;;;;;;6.17;4.50;;;-4.40;99.90;;;;;;5067119;28;20190;-78
2023/03/01 00:33:47;;;;;;;7.97;4.57;;;-4.50;99.90;;;;;;5067034;28;20655;-78
2023/03/01 00:36:15;;;;;;;5.20;4.50;;;-4.50;99.90;;;;;;5067212;28;21007;-78
2023/03/01 00:38:43;;;;;;;6.73;4.80;;;-4.50;99.90;;;;;;5066595;28;20212;-78
2023/03/01 00:41:12;;;;;;;6.73;4.93;;;-4.60;99.90;;;;;;5067258;28;20546;-78
2023/03/01 00:43:38;;;;;;;8.00;5.43;;;-4.60;99.90;;;;;;5065649;28;20225;-78
2023/03/01 00:46:06;;;;;;;6.47;5.20;;;-4.60;99.90;;;;;;5065540;28;20644;-79
2023/03/01 00:48:32;;;;;;;7.33;5.70;;;-4.30;1.00;;;;;;5064853;28;20193;-78
2023/03/01 00:51:08;;;;;;;8.33;4.73;;;-4.60;1.00;;;;;;5066602;28;20187;-79
2023/03/01 00:53:34;;;;;;;7.40;4.87;;;-4.60;1.00;;;;;;5067051;28;20180;-77
2023/03/01 00:56:00;;;;;;;8.43;5.40;;;-4.60;1.00;;;;;;5067635;28;20205;-79
2023/03/01 00:58:26;;;;;;;8.03;5.87;;;-4.70;99.90;;;;;;5065685;28;20641;-78
2023/03/01 01:00:52;;;;;;;8.67;5.87;;;-4.70;99.90;;;;;;5066126;28;20194;-78
2023/03/01 01:03:18;;;;;;;7.70;5.77;;;-4.70;99.90;;;;;;5066932;28;20598;-78
2023/03/01 01:05:44;;;;;;;9.90;6.37;;;-4.70;99.90;;;;;;5066102;28;20209;-77
2023/03/01 01:08:09;;;;;;;11.30;7.23;;;-4.70;99.90;;;;;;5067450;28;20237;-78
2023/03/01 01:10:35;;;;;;;10.83;7.53;;;-4.80;99.90;;;;;;5073424;28;20186;-78
2023/03/01 01:13:01;;;;;;;11.30;7.70;;;-4.80;99.90;;;;;;5058515;28;20209;-79
2023/03/01 01:15:26;;;;;;;13.43;7.63;;;-4.80;99.90;;;;;;5067693;28;20189;-78
2023/03/01 01:17:52;;;;;;;13.43;8.27;;;-4.90;99.90;;;;;;5065872;28;20212;-78
2023/03/01 01:20:18;;;;;;;12.47;8.60;;;-4.90;1.00;;;;;;5067837;28;20185;-77
2023/03/01 01:22:43;;;;;;;14.20;8.80;;;-4.90;99.90;;;;;;5067039;28;20189;-79
2023/03/01 01:25:10;;;;;;;15.33;9.23;;;-4.90;99.90;;;;;;5065344;28;20196;-79
2023/03/01 01:27:36;;;;;;;13.10;9.33;;;-4.90;1.00;;;;;;5066976;28;20235;-80
2023/03/01 01:30:02;;;;;;;14.53;8.90;;;-4.90;1.00;;;;;;5066031;28;20700;-78
2023/03/01 01:32:28;;;;;;;13.10;8.70;;;-4.90;1.00;;;;;;5067902;28;20199;-78
2023/03/01 01:34:54;;;;;;;13.67;9.17;;;-4.90;1.00;;;;;;5067523;28;20264;-78
2023/03/01 01:37:20;;;;;;;16.30;9.30;;;-4.90;1.00;;;;;;5065735;28;20585;-78
2023/03/01 01:39:45;;;;;;;12.63;7.90;;;-4.90;1.00;;;;;;5065476;28;20283;-79
2023/03/01 01:42:18;;;;;;;12.80;8.37;;;-4.90;1.00;;;;;;5065960;28;21105;-78
2023/03/01 01:44:47;;;;;;;11.13;7.93;;;-5.00;1.00;;;;;;5066113;28;20178;-79
2023/03/01 01:47:18;;;;;;;16.00;9.83;;;-5.10;1.00;;;;;;5074255;28;20272;-78
2023/03/01 01:50:04;;;;;;;14.00;8.20;;;-5.10;1.00;;;;;;5066698;28;20676;-78
2023/03/01 01:52:37;;;;;;;12.37;7.73;;;-5.10;1.00;;;;;;5066394;28;20196;-78
2023/03/01 01:55:11;;;;;;;15.17;7.73;;;-5.10;1.00;;;;;;5064832;28;20177;-78
2023/03/01 01:57:41;;;;;;;14.87;8.70;;;-5.10;1.00;;;;;;5065764;28;20197;-78
2023/03/01 02:00:15;;;;;;;14.63;8.60;;;-5.10;1.00;;;;;;5074220;28;20182;-78
2023/03/01 02:02:42;;;;;;;14.53;9.67;;;-5.10;1.00;;;;;;5075160;28;20608;-78
2023/03/01 02:05:49;;;;;;;16.47;9.87;;;-5.10;1.00;;;;;;5067104;28;20208;-78
2023/03/01 02:08:18;;;;;;;14.37;8.83;;;-4.60;1.00;;;;;;5029707;28;20595;-78
2023/03/01 02:10:46;;;;;;;15.00;9.20;;;-5.10;1.00;;;;;;5066441;28;20188;-78
2023/03/01 02:13:12;;;;;;;12.60;8.57;;;-5.10;66.80;;;;;;5066255;28;20879;-79
2023/03/01 02:15:40;;;;;;;13.10;8.30;;;-5.10;91.10;;;;;;5066297;28;20194;-78
2023/03/01 02:18:07;;;;;;;17.80;11.40;;;-5.10;99.90;;;;;;5069745;28;20217;-78
2023/03/01 02:20:43;;;;;;;16.63;11.50;;;-5.10;99.90;;;;;;5078660;28;20197;-78
2023/03/01 02:23:08;;;;;;;13.67;9.70;;;-5.10;99.90;;;;;;5067870;28;20325;-78
2023/03/01 02:25:46;;;;;;;13.70;9.13;;;-5.20;99.90;;;;;;5070038;28;20184;-78
2023/03/01 02:28:17;;;;;;;11.50;7.80;;;-5.20;99.90;;;;;;5069412;28;20653;-79
2023/03/01 02:33:33;;;;;;;11.10;7.87;;;-5.20;99.90;;;;;;5068785;28;20192;-78
2023/03/01 02:36:01;;;;;;;13.03;8.33;;;-5.10;99.90;;;;;;5069277;28;20593;-78
2023/03/01 02:38:27;;;;;;;10.40;7.57;;;-5.10;99.90;;;;;;5068540;28;20578;-78
2023/03/01 02:40:56;;;;;;;10.80;8.00;;;-5.20;99.90;;;;;;5067759;28;20177;-78
2023/03/01 02:43:25;;;;;;;10.43;7.90;;;-5.20;99.90;;;;;;5067085;28;20616;-78
2023/03/01 02:45:52;;;;;;;10.20;7.77;;;-5.20;99.90;;;;;;5067402;28;20177;-78
2023/03/01 02:48:19;;;;;;;10.57;7.47;;;-5.10;1.00;;;;;;5066814;28;20227;-78
2023/03/01 02:50:57;;;;;;;10.57;7.40;;;-5.20;1.00;;;;;;5067442;28;20197;-78
2023/03/01 02:53:38;;;;;;;12.33;7.50;;;-5.30;1.00;;;;;;5075640;28;20678;-78
2023/03/01 02:56:04;;;;;;;10.70;7.33;;;-5.30;1.00;;;;;;5066895;28;20594;-78
2023/03/01 02:58:29;;;;;;;12.50;7.17;;;-5.30;1.00;;;;;;5066884;28;20270;-78
2023/03/01 03:00:56;;;;;;;9.87;7.40;;;-5.30;1.00;;;;;;5066623;28;20235;-79
2023/03/01 03:03:22;;;;;;;11.93;7.20;;;-5.40;1.00;;;;;;5066225;28;20180;-78
2023/03/01 03:05:48;;;;;;;9.53;6.97;;;-5.50;1.00;;;;;;5067241;28;20260;-79
2023/03/01 03:08:23;;;;;;;8.83;6.97;;;-5.50;1.00;;;;;;5066926;28;20229;-79
2023/03/01 03:10:49;;;;;;;12.50;7.30;;;-5.50;1.00;;;;;;5067783;28;20235;-78
2023/03/01 03:13:15;;;;;;;11.00;7.77;;;-5.50;1.00;;;;;;5068919;28;20251;-79
2023/03/01 03:15:42;;;;;;;10.90;7.60;;;-5.50;1.00;;;;;;5067673;28;20193;-78
2023/03/01 03:18:12;;;;;;;9.10;6.90;;;-5.50;1.00;;;;;;5068911;28;20258;-78
2023/03/01 03:20:40;;;;;;;10.43;7.50;;;-5.50;1.00;;;;;;5068803;28;20189;-78
2023/03/01 03:23:05;;;;;;;8.40;6.33;;;-5.60;1.00;;;;;;5070256;28;20201;-78
2023/03/01 03:25:31;;;;;;;10.60;6.87;;;-5.60;1.00;;;;;;5068209;28;20217;-77
2023/03/01 03:27:57;;;;;;;9.97;6.67;;;-5.60;1.00;;;;;;5069747;28;20185;-78
2023/03/01 03:30:31;;;;;;;10.73;6.93;;;-5.70;1.00;;;;;;5067574;28;20629;-78
2023/03/01 03:32:58;;;;;;;9.67;6.83;;;-5.70;1.00;;;;;;5069560;28;20189;-78
2023/03/01 03:35:29;;;;;;;8.63;6.73;;;-5.70;25.10;;;;;;5070155;28;20676;-78
2023/03/01 03:38:02;;;;;;;10.57;6.93;;;-5.70;68.80;;;;;;5076879;28;20948;-78
2023/03/01 03:40:33;;;;;;;9.50;6.90;;;-5.70;99.90;;;;;;5069156;28;20656;-79
2023/03/01 03:42:58;;;;;;;8.80;6.80;;;-5.70;99.90;;;;;;5067698;28;20887;-78
2023/03/01 03:45:24;;;;;;;8.40;6.30;;;-5.80;90.70;;;;;;5068854;28;20185;-78
2023/03/01 03:47:49;;;;;;;9.23;6.50;;;-5.80;79.50;;;;;;5076325;28;20193;-79
2023/03/01 03:50:16;;;;;;;10.43;6.43;;;-5.90;17.10;;;;;;5069376;28;20196;-78
2023/03/01 03:52:43;;;;;;;11.30;7.03;;;-5.90;3.20;;;;;;5066956;28;20177;-76
2023/03/01 03:55:10;;;;;;;7.93;6.23;;;-5.90;27.90;;;;;;5067928;28;20227;-79
2023/03/01 03:57:42;;;;;;;7.57;5.63;;;-5.90;41.30;;;;;;5077498;28;20269;-78
2023/03/01 04:00:12;;;;;;;9.00;5.50;;;-5.90;26.80;;;;;;5069004;28;20190;-77
2023/03/01 04:02:48;;;;;;;10.30;6.03;;;-5.90;43.50;;;;;;5067119;28;21173;-78
2023/03/01 04:05:16;;;;;;;8.90;6.00;;;-5.90;66.20;;;;;;5069212;28;20188;-78
2023/03/01 04:07:42;;;;;;;9.77;6.10;;;-5.90;99.90;;;;;;5076108;28;20185;-79
2023/03/01 04:10:14;;;;;;;9.00;6.10;;;-5.70;99.90;;;;;;5067996;28;21048;-77
2023/03/01 04:12:39;;;;;;;7.60;5.67;;;-5.90;99.90;;;;;;5069278;28;20197;-78
2023/03/01 04:15:12;;;;;;;8.30;6.20;;;-6.00;99.90;;;;;;5068221;28;20185;-78
2023/03/01 04:17:46;;;;;;;8.63;6.10;;;-6.00;99.90;;;;;;5068930;28;20236;-79
2023/03/01 04:20:17;;;;;;;9.53;6.47;;;-6.10;99.90;;;;;;5068807;28;20182;-78
2023/03/01 04:22:46;;;;;;;9.97;6.40;;;-6.00;99.90;;;;;;5068668;28;20174;-79
2023/03/01 04:25:13;;;;;;;9.07;6.23;;;-6.00;99.90;;;;;;5067657;28;20216;-80
2023/03/01 04:27:40;;;;;;;7.23;5.27;;;-6.00;99.90;;;;;;5068440;28;20188;-77
2023/03/01 04:30:06;;;;;;;9.23;6.10;;;-6.00;99.90;;;;;;5069943;28;20661;-80
2023/03/01 04:32:32;;;;;;;9.90;6.63;;;-6.10;99.90;;;;;;5069462;28;20185;-79
2023/03/01 04:34:57;;;;;;;10.50;6.50;;;-5.90;99.90;;;;;;5069717;28;20204;-79
2023/03/01 04:37:23;;;;;;;9.57;6.90;;;-6.00;99.90;;;;;;5067445;28;20291;-78
2023/03/01 04:39:49;;;;;;;8.67;6.30;;;-6.10;99.90;;;;;;5068842;28;20583;-78
2023/03/01 04:42:16;;;;;;;10.03;7.20;;;-6.10;99.90;;;;;;5068313;28;20189;-79
2023/03/01 04:44:42;;;;;;;8.13;6.13;;;-6.10;99.90;;;;;;5068297;28;20949;-80
2023/03/01 04:47:08;;;;;;;10.00;6.47;;;-6.10;99.90;;;;;;5073950;28;20185;-78
2023/03/01 04:49:33;;;;;;;9.87;6.63;;;-5.90;99.90;;;;;;5067016;28;20219;-77
2023/03/01 04:52:01;;;;;;;9.40;6.33;;;-6.10;99.90;;;;;;5068445;28;20200;-78
2023/03/01 04:54:28;;;;;;;8.67;6.30;;;-6.10;99.90;;;;;;5067084;28;20185;-80
2023/03/01 04:56:54;;;;;;;10.80;6.57;;;-5.90;99.90;;;;;;5068282;28;20633;-79
2023/03/01 04:59:22;;;;;;;9.30;5.73;;;-6.20;99.90;;;;;;5066944;28;20349;-77
2023/03/01 05:01:48;;;;;;;10.60;6.57;;;-6.20;99.90;;;;;;5067732;28;20191;-77
2023/03/01 05:04:14;;;;;;;10.03;7.10;;;-6.10;99.90;;;;;;5067340;28;20239;-78
2023/03/01 05:06:40;;;;;;;8.53;6.73;;;-6.10;99.90;;;;;;5067961;28;20598;-77
2023/03/01 05:09:06;;;;;;;8.77;6.40;;;-5.80;99.90;;;;;;5067789;28;20255;-77
2023/03/01 05:11:35;;;;;;;11.13;6.87;;;-6.10;99.90;;;;;;5066918;28;20193;-78
2023/03/01 05:14:01;;;;;;;8.47;6.53;;;-6.20;99.90;;;;;;5068418;28;20197;-77
2023/03/01 05:16:27;;;;;;;11.47;6.53;;;-6.10;99.90;;;;;;5068572;28;20209;-77
2023/03/01 05:18:55;;;;;;;9.00;6.77;;;-6.20;99.90;;;;;;5068405;28;20204;-78
2023/03/01 05:21:21;;;;;;;9.23;6.33;;;-6.10;99.90;;;;;;5067552;28;20187;-77
2023/03/01 05:23:46;;;;;;;10.90;7.43;;;-6.10;99.90;;;;;;5066688;28;20181;-77
2023/03/01 05:26:13;;;;;;;9.50;6.90;;;-6.20;99.90;;;;;;5068337;28;20799;-79
2023/03/01 05:28:39;;;;;;;10.77;7.40;;;-6.20;99.90;;;;;;5066770;28;20794;-79
2023/03/01 05:31:09;;;;;;;10.27;6.83;;;-6.20;99.90;;;;;;5068629;28;20185;-78
2023/03/01 05:33:39;;;;;;;10.57;7.30;;;-6.20;99.90;;;;;;5067983;28;20180;-79
2023/03/01 05:36:07;;;;;;;8.90;6.77;;;-6.20;99.90;;;;;;5067966;28;20184;-79
2023/03/01 05:38:33;;;;;;;10.00;7.33;;;-6.20;99.90;;;;;;5066487;28;20224;-78
2023/03/01 05:40:58;;;;;;;9.73;7.68;;;-6.20;99.90;;;;;;5066815;28;20898;-78
2023/03/01 05:43:24;;;;;;;10.90;7.60;;;-6.30;99.90;;;;;;5065312;28;20243;-79
2023/03/01 05:45:49;;;;;;;12.23;8.07;;;-6.20;99.90;;;;;;5064929;28;20173;-78
2023/03/01 05:48:15;;;;;;;12.90;7.90;;;-6.30;99.90;;;;;;5066130;28;20692;-78
2023/03/01 05:50:45;;;;;;;9.47;7.20;;;-6.20;99.90;;;;;;5069008;28;20210;-78
2023/03/01 05:53:17;;;;;;;12.63;7.40;;;-6.30;99.90;;;;;;5070411;28;20182;-78
2023/03/01 05:55:44;;;;;;;12.13;7.73;;;-6.30;99.90;;;;;;5070333;28;20179;-78
2023/03/01 05:58:16;;;;;;;12.87;8.60;;;-6.30;99.90;;;;;;5068206;28;20700;-78
2023/03/01 06:00:43;;;;;;;11.73;7.33;;;-6.20;99.90;;;;;;5069659;28;20184;-78
2023/03/01 06:03:11;;;;;;;14.10;8.07;;;-6.40;89.70;;;;;;5069153;28;20192;-78
2023/03/01 06:05:37;;;;;;;11.33;7.40;;;-6.30;99.90;;;;;;5068420;28;20322;-78
2023/03/01 06:08:03;;;;;;;13.93;7.73;;;-6.40;90.20;;;;;;5068570;28;20283;-79
2023/03/01 06:10:29;;;;;;;9.63;7.17;;;-6.40;40.00;;;;;;5070479;28;20182;-77
2023/03/01 06:12:55;;;;;;;12.60;7.27;;;-6.30;1.00;;;;;;5069850;28;20201;-78
2023/03/01 06:15:21;;;;;;;12.03;7.27;;;-6.40;1.00;;;;;;5071612;28;20189;-79
2023/03/01 06:17:47;;;;;;;11.77;7.77;;;-6.40;1.00;;;;;;5071833;28;20532;-78
2023/03/01 06:20:14;;;;;;;10.07;7.10;;;-6.40;1.00;;;;;;5072125;28;20192;-80
2023/03/01 06:22:41;;;;;;;10.93;7.40;;;-6.50;1.00;;;;;;5068995;28;20181;-80
2023/03/01 06:25:08;;;;;;;12.33;8.40;;;-6.40;1.00;;;;;;5068923;28;20252;-78
2023/03/01 06:27:34;;;;;;;18.40;11.20;;;-6.40;1.00;;;;;;5078568;28;20209;-79
2023/03/01 06:29:59;;;;;;;22.13;12.97;;;-6.40;1.00;;;;;;5071238;28;20194;-77
2023/03/01 06:32:25;;;;;;;23.13;12.57;;;-6.30;1.00;;;;;;5070110;28;20193;-78
2023/03/01 06:34:50;;;;;;;18.20;11.10;;;-6.30;1.00;;;;;;5069388;28;20189;-81
2023/03/01 06:37:16;;;;;;;12.80;8.47;;;-6.30;1.00;;;;;;5071527;28;20190;-79
2023/03/01 06:39:41;;;;;;;13.90;8.83;;;-6.30;1.00;;;;;;5070084;28;20271;-78
2023/03/01 06:42:08;;;;;;;15.10;10.30;;;-6.10;1.00;;;;;;5070072;28;20197;-79
2023/03/01 06:44:33;;;;;;;14.37;10.47;;;-6.20;1.00;;;;;;5071056;28;20241;-79
2023/03/01 06:46:59;;;;;;;13.27;9.17;;;-6.20;1.00;;;;;;5069016;28;20792;-79
2023/03/01 06:49:25;;;;;;;12.03;9.10;;;-6.10;1.00;;;;;;5069424;28;20552;-79
2023/03/01 06:51:50;;;;;;;14.17;9.60;;;-6.10;1.00;;;;;;5070685;28;20189;-78
2023/03/01 06:54:17;;;;;;;12.17;8.93;;;-6.00;1.00;;;;;;5069420;28;20260;-79
2023/03/01 06:56:43;;;;;;;11.17;8.63;;;-6.00;1.00;;;;;;5071370;28;20187;-77
2023/03/01 06:59:08;;;;;;;11.30;8.60;;;-5.90;1.00;;;;;;5071766;28;20209;-78
2023/03/01 07:01:34;;;;;;;12.50;9.30;;;-5.80;1.00;;;;;;5070570;28;20186;-78
2023/03/01 07:03:59;;;;;;;14.70;11.03;;;-5.80;1.00;;;;;;5070092;28;20265;-79
2023/03/01 07:06:25;;;;;;;18.30;12.80;;;-5.70;1.00;;;;;;5071780;28;20189;-80
2023/03/01 07:08:50;;;;;;;16.03;11.70;;;-5.70;1.00;;;;;;5069992;28;20201;-79
2023/03/01 07:11:16;;;;;;;18.00;13.73;;;-5.60;1.00;;;;;;5070083;28;20182;-78
2023/03/01 07:13:42;;;;;;;20.97;14.80;;;-5.50;1.00;;;;;;5071591;28;20273;-77
2023/03/01 07:16:08;;;;;;;17.77;12.87;;;-5.20;99.90;;;;;;5071383;28;20177;-80
2023/03/01 07:18:33;;;;;;;16.90;12.23;;;-5.20;56.70;;;;;;5070765;28;20213;-77
2023/03/01 07:21:05;;;;;;;16.93;11.80;;;-5.20;10.20;;;;;;5070716;28;20226;-78
2023/03/01 07:23:31;;;;;;;36.83;22.63;;;-5.10;5.80;;;;;;5077207;28;20208;-79
2023/03/01 07:25:57;;;;;;;27.00;17.93;;;-5.00;1.00;;;;;;5070033;28;20190;-79
2023/03/01 07:28:23;;;;;;;23.10;15.73;;;-4.90;24.10;;;;;;5077262;28;20210;-77
2023/03/01 07:30:49;;;;;;;20.30;14.70;;;-4.80;65.50;;;;;;5064468;28;20189;-78
2023/03/01 07:33:15;;;;;;;16.93;12.97;;;-4.70;40.20;;;;;;5069728;28;20197;-77
2023/03/01 07:35:40;;;;;;;15.53;10.83;;;-4.70;9.80;;;;;;5069924;28;20185;-79
2023/03/01 07:38:06;;;;;;;12.57;9.30;;;-4.60;1.00;;;;;;5068605;28;20670;-79
2023/03/01 07:40:31;;;;;;;11.80;9.50;;;-4.60;1.00;;;;;;5069297;28;20204;-79
2023/03/01 07:42:58;;;;;;;11.23;8.80;;;-4.50;1.00;;;;;;5066445;28;20795;-78
2023/03/01 07:45:25;;;;;;;13.57;9.27;;;-4.50;1.00;;;;;;5067854;28;20544;-78
2023/03/01 07:47:52;;;;;;;13.73;10.80;;;-4.40;1.00;;;;;;5068693;28;20224;-78
2023/03/01 07:50:18;;;;;;;14.20;11.03;;;-4.30;60.00;;;;;;5068742;28;20640;-79
2023/03/01 07:52:47;;;;;;;16.93;12.00;;;-4.20;78.00;;;;;;5069476;28;20201;-78
2023/03/01 07:55:14;;;;;;;15.50;10.80;;;-4.10;94.30;;;;;;5068340;28;20231;-79
2023/03/01 07:57:39;;;;;;;14.37;10.30;;;-4.00;29.40;;;;;;5066942;28;20188;-79
2023/03/01 08:00:06;;;;;;;12.60;10.20;;;-3.90;18.70;;;;;;5066899;28;20260;-79
2023/03/01 08:02:32;;;;;;;15.67;10.97;;;-3.80;13.50;;;;;;5057184;28;20186;-79
2023/03/01 08:04:57;;;;;;;16.00;11.10;;;-3.80;24.00;;;;;;5066463;28;20200;-79
2023/03/01 08:07:23;;;;;;;13.80;10.90;;;-3.70;60.50;;;;;;5068633;28;20292;-79
2023/03/01 08:09:49;;;;;;;19.53;13.40;;;-3.50;57.20;;;;;;5068914;28;20288;-79
2023/03/01 08:12:16;;;;;;;16.00;13.63;;;-3.20;77.90;;;;;;5065856;28;20185;-79
2023/03/01 08:14:41;;;;;;;34.57;24.90;;;-3.00;1.00;;;;;;5067845;28;20177;-80
2023/03/01 08:17:07;;;;;;;19.87;15.17;;;-2.90;99.90;;;;;;5067672;28;20190;-80
2023/03/01 08:19:34;;;;;;;14.80;12.67;;;-2.80;99.90;;;;;;5068723;28;20205;-79
2023/03/01 08:22:03;;;;;;;15.23;12.27;;;-2.80;99.90;;;;;;5068485;28;20709;-79
2023/03/01 08:24:28;;;;;;;15.83;11.90;;;-2.70;99.90;;;;;;5066081;28;20182;-78
2023/03/01 08:26:54;;;;;;;16.30;12.03;;;-2.50;99.90;;;;;;5067945;28;20310;-79
2023/03/01 08:29:20;;;;;;;15.70;11.77;;;-2.50;99.90;;;;;;5067467;28;20209;-79
2023/03/01 08:31:46;;;;;;;13.03;10.73;;;-2.30;99.90;;;;;;5067458;28;20174;-79
2023/03/01 08:34:14;;;;;;;14.43;10.93;;;-2.30;99.90;;;;;;5065209;28;20192;-80
2023/03/01 08:36:42;;;;;;;14.47;10.93;;;-2.20;80.40;;;;;;5065561;28;20185;-79
2023/03/01 08:39:10;;;;;;;13.03;9.90;;;-2.00;1.00;;;;;;5074256;28;20217;-79
2023/03/01 08:41:36;;;;;;;14.43;11.10;;;-2.00;1.00;;;;;;5066089;28;20173;-79
2023/03/01 08:44:02;;;;;;;12.10;9.83;;;-1.80;1.00;;;;;;5064338;28;20255;-80
2023/03/01 08:46:30;;;;;;;14.77;10.47;;;-1.70;1.00;;;;;;5063995;28;20204;-79
2023/03/01 08:48:56;;;;;;;12.53;10.07;;;-1.60;1.00;;;;;;5062988;28;20240;-79
2023/03/01 08:51:23;;;;;;;13.83;12.03;;;-1.50;99.90;;;;;;5061596;28;20209;-79
2023/03/01 08:53:49;;;;;;;14.07;10.87;;;-1.40;99.90;;;;;;5059910;28;20265;-80
2023/03/01 08:56:16;;;;;;;12.90;10.10;;;-1.20;99.90;;;;;;5062909;28;20262;-79
2023/03/01 08:58:46;;;;;;;12.70;9.30;;;-1.10;99.90;;;;;;5058345;28;20217;-80
2023/03/01 09:01:15;;;;;;;10.57;8.60;;;-1.00;99.90;;;;;;5060734;28;20202;-80
2023/03/01 09:03:42;;;;;;;9.90;8.10;;;-0.90;99.90;;;;;;5061029;28;20185;-79
2023/03/01 09:06:08;;;;;;;8.83;7.53;;;-0.80;99.90;;;;;;5061247;28;20437;-77
2023/03/01 09:08:42;;;;;;;10.10;7.27;;;-0.70;99.90;;;;;;5059126;28;20213;-77
2023/03/01 09:11:10;;;;;;;9.13;7.07;;;-0.60;99.90;;;;;;5061428;28;20279;-78
2023/03/01 09:13:36;;;;;;;9.07;7.00;;;-0.50;88.20;;;;;;5058098;28;20197;-79
2023/03/01 09:16:04;;;;;;;8.00;6.80;;;-0.40;89.50;;;;;;5059851;28;20564;-78
2023/03/01 09:18:30;;;;;;;8.43;6.33;;;-0.40;68.80;;;;;;5064855;28;20982;-79
2023/03/01 09:21:07;;;;;;;9.27;7.07;;;-0.20;40.60;;;;;;5062731;28;20194;-77
2023/03/01 09:23:39;;;;;;;8.50;6.80;;;-0.10;37.40;;;;;;5037056;28;20189;-78
2023/03/01 09:26:10;;;;;;;7.87;6.83;;;0.00;21.40;;;;;;5063774;28;20185;-79
2023/03/01 09:28:37;;;;;;;8.77;6.10;;;0.20;6.60;;;;;;5071327;28;20213;-79
2023/03/01 09:31:04;;;;;;;8.73;6.57;;;0.30;1.00;;;;;;5064213;28;20200;-80
2023/03/01 09:33:31;;;;;;;7.30;6.27;;;0.40;1.00;;;;;;5063548;28;20189;-79
2023/03/01 09:35:59;;;;;;;8.07;6.13;;;0.60;1.00;;;;;;5065564;28;20212;-78
2023/03/01 09:38:25;;;;;;;7.90;5.90;;;0.70;1.00;;;;;;5062886;28;20273;-78
2023/03/01 09:40:51;;;;;;;10.73;7.13;;;0.80;1.00;;;;;;5065462;28;20331;-80
2023/03/01 09:43:40;;;;;;;9.07;6.43;;;0.90;1.00;;;;;;5063425;28;20680;-80
2023/03/01 09:46:09;;;;;;;7.47;6.33;;;1.00;1.00;;;;;;5065096;28;20198;-78
2023/03/01 09:48:51;;;;;;;8.30;5.93;;;1.10;1.00;;;;;;5062974;28;20633;-79
2023/03/01 09:51:26;;;;;;;32.20;19.70;;;0.20;1.00;;;;;;5065216;28;20196;-79
2023/03/01 09:53:54;;;;;;;10.00;6.70;;;1.30;1.00;;;;;;5065214;28;20246;-78
2023/03/01 09:56:27;;;;;;;11.10;6.57;;;1.40;1.00;;;;;;5066356;28;20185;-77
2023/03/01 09:59:04;;;;;;;8.23;6.30;;;1.50;1.00;;;;;;5064907;28;20202;-78
2023/03/01 10:01:45;;;;;;;7.80;5.40;;;1.60;1.00;;;;;;5062411;28;20565;-78
2023/03/01 10:04:26;;;;;;;8.03;5.80;;;1.80;1.00;;;;;;5065087;28;20242;-79
2023/03/01 10:06:58;;;;;;;8.60;6.30;;;1.80;1.00;;;;;;5063684;28;20228;-79
2023/03/01 10:09:24;;;;;;;9.20;5.53;;;1.80;1.00;;;;;;5064537;28;20288;-77
2023/03/01 10:11:53;;;;;;;7.90;6.10;;;2.00;1.00;;;;;;5064273;28;20261;-79
2023/03/01 10:14:49;;;;;;;7.13;5.93;;;2.00;1.00;;;;;;5065980;28;20735;-78
2023/03/01 10:17:27;;;;;;;8.13;5.63;;;2.10;1.00;;;;;;5073412;28;20185;-79
2023/03/01 10:19:52;;;;;;;8.07;6.77;;;2.20;1.00;;;;;;5064617;28;20209;-79
2023/03/01 10:22:28;;;;;;;7.07;6.10;;;2.30;1.00;;;;;;5064513;28;20246;-79
2023/03/01 10:24:56;;;;;;;7.70;6.30;;;2.40;1.00;;;;;;5064761;28;20181;-78
2023/03/01 10:28:00;;;;;;;8.73;5.90;;;2.60;1.00;;;;;;5061836;28;20205;-79
2023/03/01 10:30:43;;;;;;;6.67;5.33;;;2.70;1.00;;;;;;5071483;28;20212;-81
2023/03/01 10:33:29;;;;;;;6.13;5.20;;;2.80;1.00;;;;;;5064877;28;20653;-79
2023/03/01 10:35:54;;;;;;;7.83;5.80;;;2.90;1.00;;;;;;5064061;28;20212;-77
2023/03/01 10:38:20;;;;;;;13.17;5.83;;;3.00;1.00;;;;;;5068296;28;20681;-79
2023/03/01 10:41:05;;;;;;;6.30;5.17;;;3.10;1.00;;;;;;5065799;28;20180;-80
2023/03/01 10:43:57;;;;;;;6.17;4.93;;;3.10;1.00;;;;;;5074499;28;20186;-78
2023/03/01 10:46:37;;;;;;;6.33;5.10;;;3.20;1.00;;;;;;5054276;28;20189;-78
2023/03/01 10:49:07;;;;;;;6.43;5.07;;;3.20;1.00;;;;;;5066040;28;20206;-79
2023/03/01 10:51:33;;;;;;;6.60;4.87;;;3.30;1.00;;;;;;5058172;28;20211;-79
2023/03/01 10:53:59;;;;;;;7.27;5.40;;;3.20;1.00;;;;;;5062053;28;20192;-80
2023/03/01 10:56:25;;;;;;;6.23;4.93;;;3.30;1.00;;;;;;5061454;28;20185;-79
2023/03/01 10:58:58;;;;;;;6.67;5.50;;;3.50;1.00;;;;;;5064035;28;20594;-78
2023/03/01 11:01:27;;;;;;;5.83;4.80;;;3.60;1.00;;;;;;5065350;28;20256;-79
2023/03/01 11:04:10;;;;;;;7.20;5.13;;;3.60;1.00;;;;;;5067004;28;20669;-78
2023/03/01 11:06:38;;;;;;;6.97;5.37;;;3.70;1.00;;;;;;5064959;28;20181;-79
2023/03/01 11:09:17;;;;;;;7.07;5.33;;;3.70;1.00;;;;;;5067437;28;20209;-79
2023/03/01 11:11:43;;;;;;;6.00;4.30;;;3.60;1.00;;;;;;5065672;28;20255;-79
2023/03/01 11:14:16;;;;;;;6.27;4.53;;;3.70;1.00;;;;;;5074880;28;20209;-79
2023/03/01 11:16:45;;;;;;;7.67;4.60;;;3.90;1.00;;;;;;5063196;28;20254;-79
2023/03/01 11:19:10;;;;;;;5.57;4.70;;;4.00;1.00;;;;;;5064434;28;20950;-78
2023/03/01 11:22:04;;;;;;;7.87;5.17;;;4.10;1.00;;;;;;5065789;28;20186;-78
2023/03/01 11:24:46;;;;;;;6.70;4.83;;;4.10;1.00;;;;;;5060522;28;20205;-80
2023/03/01 11:27:40;;;;;;;5.93;4.20;;;4.10;1.00;;;;;;5063651;28;20210;-79
2023/03/01 11:30:27;;;;;;;5.30;4.63;;;4.30;1.00;;;;;;5071033;28;20310;-79
2023/03/01 11:33:07;;;;;;;5.70;4.63;;;4.30;1.00;;;;;;5064271;28;20192;-79
2023/03/01 11:35:37;;;;;;;5.57;4.80;;;4.40;1.00;;;;;;5071732;28;20196;-81
2023/03/01 11:38:09;;;;;;;6.70;4.63;;;4.50;1.00;;;;;;5064859;28;20202;-81
2023/03/01 11:40:51;;;;;;;5.90;4.97;;;4.40;1.00;;;;;;5063691;28;20184;-79
2023/03/01 11:43:25;;;;;;;6.43;5.33;;;4.40;1.00;;;;;;5062421;28;20178;-81
2023/03/01 11:46:02;;;;;;;10.47;9.00;;;4.40;1.00;;;;;;5065462;28;20189;-80
2023/03/01 11:48:58;;;;;;;5.47;4.87;;;4.50;1.00;;;;;;5067808;28;20205;-78
2023/03/01 11:51:49;;;;;;;9.47;6.13;;;4.50;1.00;;;;;;5063014;28;20189;-78
2023/03/01 11:54:42;;;;;;;5.77;4.60;;;4.50;1.00;;;;;;5051137;28;20181;-79
2023/03/01 11:57:40;;;;;;;6.40;5.17;;;4.60;1.00;;;;;;5064715;28;20866;-78
2023/03/01 12:00:44;;;;;;;6.70;5.07;;;4.60;1.00;;;;;;5060667;28;20586;-80
2023/03/01 12:03:39;;;;;;;11.80;9.43;;;4.80;1.00;;;;;;5065740;28;20225;-78
2023/03/01 12:06:16;;;;;;;12.87;8.97;;;4.20;1.00;;;;;;5064889;28;20189;-79
2023/03/01 12:08:52;;;;;;;6.40;5.67;;;5.10;1.00;;;;;;5063666;28;20209;-78
2023/03/01 12:11:23;;;;;;;17.77;13.23;;;5.10;1.00;;;;;;5064939;28;20562;-79
2023/03/01 12:14:21;;;;;;;16.03;12.20;;;5.00;1.00;;;;;;5062965;28;20193;-80
2023/03/01 12:17:07;;;;;;;14.20;10.40;;;4.90;1.00;;;;;;5063783;28;20296;-78
2023/03/01 12:19:51;;;;;;;5.67;4.60;;;4.90;1.00;;;;;;5063296;28;20255;-78
2023/03/01 12:22:32;;;;;;;8.33;5.73;;;4.80;1.00;;;;;;5065448;28;20204;-79
2023/03/01 12:25:30;;;;;;;7.57;4.80;;;5.00;1.00;;;;;;5064917;28;20185;-80
2023/03/01 12:27:58;;;;;;;6.43;4.73;;;4.90;1.00;;;;;;5067358;28;20842;-78
2023/03/01 12:30:44;;;;;;;5.87;4.70;;;5.00;1.00;;;;;;5065356;28;20241;-78
2023/03/01 12:33:39;;;;;;;6.50;4.73;;;5.00;1.00;;;;;;5064428;28;20365;-80
2023/03/01 12:36:24;;;;;;;12.27;8.53;;;5.00;1.00;;;;;;5063386;28;20273;-78
2023/03/01 12:39:01;;;;;;;5.50;3.80;;;5.10;1.00;;;;;;5066964;28;20212;-78
2023/03/01 12:41:43;;;;;;;5.33;4.10;;;5.10;1.00;;;;;;5068913;28;20181;-80
2023/03/01 12:44:28;;;;;;;5.60;3.67;;;5.10;1.00;;;;;;5067118;28;20193;-79
2023/03/01 12:47:31;;;;;;;8.67;5.90;;;5.30;1.00;;;;;;5068848;28;20197;-80
2023/03/01 12:50:04;;;;;;;6.93;4.97;;;5.30;1.00;;;;;;5064805;28;20209;-78
2023/03/01 12:52:42;;;;;;;5.60;4.00;;;5.30;1.00;;;;;;5065125;28;20177;-80
2023/03/01 12:55:37;;;;;;;19.23;12.33;;;5.40;1.00;;;;;;5064882;28;20235;-80
2023/03/01 12:58:11;;;;;;;5.23;4.27;;;5.40;1.00;;;;;;5065072;28;20213;-78
2023/03/01 13:01:19;;;;;;;4.50;3.20;;;5.50;1.00;;;;;;5063848;28;20187;-79
2023/03/01 13:04:02;;;;;;;10.10;6.53;;;5.60;1.00;;;;;;5065149;28;20197;-78
2023/03/01 13:07:03;;;;;;;12.00;7.57;;;5.60;1.00;;;;;;5065547;28;20212;-79
2023/03/01 13:09:38;;;;;;;4.67;4.07;;;5.50;1.00;;;;;;5015624;28;20698;-79